sensor_id;sensor_type;location;lat;lon;timestamp;P1;durP1;ratioP1;P2;durP2;ratioP2
44384;SDS011;30101;32.778;34.994;2022-11-15T00:02:31;34.83;;;19.98;;
44384;SDS011;30101;32.778;34.994;2022-11-15T00:07:59;31.97;;;18.90;;
44384;SDS011;30101;32.778;34.994;2022-11-15T00:13:26;34.58;;;19.50;;
44384;SDS011;30101;32.778;34.994;2022-11-15T00:18:48;30.25;;;19.77;;
44384;SDS011;30101;32.778;34.994;2022-11-15T00:24:11;27.88;;;19.95;;
44384;SDS011;30101;32.778;34.994;2022-11-15T00:29:33;34.63;;;21.42;;
44384;SDS011;30101;32.778;34.994;2022-11-15T00:34:55;30.75;;;19.85;;
44384;SDS011;30101;32.778;34.994;2022-11-15T00:40:17;35.22;;;21.77;;
44384;SDS011;30101;32.778;34.994;2022-11-15T00:45:46;29.92;;;20.13;;
44384;SDS011;30101;32.778;34.994;2022-11-15T00:51:14;27.80;;;18.60;;
44384;SDS011;30101;32.778;34.994;2022-11-15T00:56:36;29.07;;;17.20;;
44384;SDS011;30101;32.778;34.994;2022-11-15T01:01:58;23.77;;;16.70;;
44384;SDS011;30101;32.778;34.994;2022-11-15T01:07:20;24.25;;;16.85;;
44384;SDS011;30101;32.778;34.994;2022-11-15T01:12:42;23.50;;;16.75;;
44384;SDS011;30101;32.778;34.994;2022-11-15T01:18:04;24.77;;;16.00;;
44384;SDS011;30101;32.778;34.994;2022-11-15T01:23:32;25.23;;;14.65;;
44384;SDS011;30101;32.778;34.994;2022-11-15T01:28:54;30.65;;;17.00;;
44384;SDS011;30101;32.778;34.994;2022-11-15T01:34:16;29.50;;;16.93;;
44384;SDS011;30101;32.778;34.994;2022-11-15T01:39:38;27.67;;;17.17;;
44384;SDS011;30101;32.778;34.994;2022-11-15T01:45:00;29.98;;;16.33;;
44384;SDS011;30101;32.778;34.994;2022-11-15T01:50:25;30.02;;;19.02;;
44384;SDS011;30101;32.778;34.994;2022-11-15T01:55:52;28.25;;;17.98;;
44384;SDS011;30101;32.778;34.994;2022-11-15T02:01:15;29.42;;;20.42;;
44384;SDS011;30101;32.778;34.994;2022-11-15T02:06:37;36.90;;;20.48;;
44384;SDS011;30101;32.778;34.994;2022-11-15T02:12:00;31.92;;;20.63;;
44384;SDS011;30101;32.778;34.994;2022-11-15T02:34:31;28.77;;;20.10;;
44384;SDS011;30101;32.778;34.994;2022-11-15T02:52:03;31.60;;;21.02;;
44384;SDS011;30101;32.778;34.994;2022-11-15T03:03:20;33.65;;;21.33;;
44384;SDS011;30101;32.778;34.994;2022-11-15T03:14:42;34.67;;;21.15;;
44384;SDS011;30101;32.778;34.994;2022-11-15T03:20:17;33.40;;;20.97;;
44384;SDS011;30101;32.778;34.994;2022-11-15T03:31:05;31.52;;;20.25;;
44384;SDS011;30101;32.778;34.994;2022-11-15T03:36:29;27.17;;;19.90;;
44384;SDS011;30101;32.778;34.994;2022-11-15T03:47:38;26.30;;;19.42;;
44384;SDS011;30101;32.778;34.994;2022-11-15T03:53:04;34.70;;;18.13;;
44384;SDS011;30101;32.778;34.994;2022-11-15T03:58:26;24.90;;;19.33;;
44384;SDS011;30101;32.778;34.994;2022-11-15T04:03:48;36.47;;;19.23;;
44384;SDS011;30101;32.778;34.994;2022-11-15T04:14:51;32.78;;;19.92;;
44384;SDS011;30101;32.778;34.994;2022-11-15T04:20:20;37.27;;;22.17;;
44384;SDS011;30101;32.778;34.994;2022-11-15T04:25:42;36.78;;;20.45;;
44384;SDS011;30101;32.778;34.994;2022-11-15T04:31:23;34.13;;;21.07;;
44384;SDS011;30101;32.778;34.994;2022-11-15T04:37:03;30.45;;;20.60;;
44384;SDS011;30101;32.778;34.994;2022-11-15T04:42:43;41.90;;;21.38;;
44384;SDS011;30101;32.778;34.994;2022-11-15T04:48:17;40.55;;;21.40;;
44384;SDS011;30101;32.778;34.994;2022-11-15T04:53:39;34.87;;;23.27;;
44384;SDS011;30101;32.778;34.994;2022-11-15T04:59:01;35.42;;;21.73;;
44384;SDS011;30101;32.778;34.994;2022-11-15T05:04:23;38.65;;;21.40;;
44384;SDS011;30101;32.778;34.994;2022-11-15T05:09:45;35.30;;;21.37;;
44384;SDS011;30101;32.778;34.994;2022-11-15T05:15:07;35.95;;;20.88;;
44384;SDS011;30101;32.778;34.994;2022-11-15T05:20:30;37.95;;;21.38;;
44384;SDS011;30101;32.778;34.994;2022-11-15T05:25:51;39.65;;;21.85;;
44384;SDS011;30101;32.778;34.994;2022-11-15T05:31:14;34.17;;;21.23;;
44384;SDS011;30101;32.778;34.994;2022-11-15T05:36:45;32.55;;;21.83;;
44384;SDS011;30101;32.778;34.994;2022-11-15T05:42:09;37.63;;;22.27;;
44384;SDS011;30101;32.778;34.994;2022-11-15T05:47:32;36.88;;;20.88;;
44384;SDS011;30101;32.778;34.994;2022-11-15T05:52:57;36.97;;;22.52;;
44384;SDS011;30101;32.778;34.994;2022-11-15T05:58:25;36.95;;;22.85;;
44384;SDS011;30101;32.778;34.994;2022-11-15T06:03:47;35.72;;;22.55;;
44384;SDS011;30101;32.778;34.994;2022-11-15T06:09:08;37.35;;;22.33;;
44384;SDS011;30101;32.778;34.994;2022-11-15T06:14:30;36.45;;;22.92;;
44384;SDS011;30101;32.778;34.994;2022-11-15T06:19:52;44.03;;;23.10;;
44384;SDS011;30101;32.778;34.994;2022-11-15T06:25:15;36.95;;;22.20;;
44384;SDS011;30101;32.778;34.994;2022-11-15T06:30:36;39.13;;;23.77;;
44384;SDS011;30101;32.778;34.994;2022-11-15T06:36:05;32.45;;;23.65;;
44384;SDS011;30101;32.778;34.994;2022-11-15T06:41:37;40.15;;;24.25;;
44384;SDS011;30101;32.778;34.994;2022-11-15T06:46:59;38.58;;;24.63;;
44384;SDS011;30101;32.778;34.994;2022-11-15T06:52:21;40.67;;;25.10;;
44384;SDS011;30101;32.778;34.994;2022-11-15T06:57:47;37.58;;;24.33;;
44384;SDS011;30101;32.778;34.994;2022-11-15T07:03:12;34.90;;;22.95;;
44384;SDS011;30101;32.778;34.994;2022-11-15T07:08:34;37.45;;;22.90;;
44384;SDS011;30101;32.778;34.994;2022-11-15T07:13:56;33.38;;;22.98;;
44384;SDS011;30101;32.778;34.994;2022-11-15T07:19:18;33.70;;;20.97;;
44384;SDS011;30101;32.778;34.994;2022-11-15T07:24:42;29.52;;;20.10;;
44384;SDS011;30101;32.778;34.994;2022-11-15T07:30:05;24.67;;;16.25;;
44384;SDS011;30101;32.778;34.994;2022-11-15T07:35:28;30.33;;;17.23;;
44384;SDS011;30101;32.778;34.994;2022-11-15T07:40:55;23.88;;;15.95;;
44384;SDS011;30101;32.778;34.994;2022-11-15T07:46:18;26.55;;;16.08;;
44384;SDS011;30101;32.778;34.994;2022-11-15T07:51:40;22.23;;;14.37;;
44384;SDS011;30101;32.778;34.994;2022-11-15T07:57:02;20.02;;;13.18;;
44384;SDS011;30101;32.778;34.994;2022-11-15T08:02:30;28.83;;;13.77;;
44384;SDS011;30101;32.778;34.994;2022-11-15T08:07:54;20.35;;;13.43;;
44384;SDS011;30101;32.778;34.994;2022-11-15T08:13:17;25.23;;;14.70;;
44384;SDS011;30101;32.778;34.994;2022-11-15T08:18:40;23.33;;;13.20;;
44384;SDS011;30101;32.778;34.994;2022-11-15T08:29:28;17.95;;;13.20;;
44384;SDS011;30101;32.778;34.994;2022-11-15T08:34:53;21.00;;;13.50;;
44384;SDS011;30101;32.778;34.994;2022-11-15T08:40:15;21.27;;;12.88;;
44384;SDS011;30101;32.778;34.994;2022-11-15T08:45:37;24.75;;;13.20;;
44384;SDS011;30101;32.778;34.994;2022-11-15T08:50:59;23.70;;;14.73;;
44384;SDS011;30101;32.778;34.994;2022-11-15T08:56:21;26.52;;;15.93;;
44384;SDS011;30101;32.778;34.994;2022-11-15T09:01:43;23.48;;;13.85;;
44384;SDS011;30101;32.778;34.994;2022-11-15T09:07:05;17.30;;;12.30;;
44384;SDS011;30101;32.778;34.994;2022-11-15T09:12:27;28.27;;;14.48;;
44384;SDS011;30101;32.778;34.994;2022-11-15T09:17:48;25.20;;;14.47;;
44384;SDS011;30101;32.778;34.994;2022-11-15T09:23:11;19.33;;;13.60;;
44384;SDS011;30101;32.778;34.994;2022-11-15T09:28:35;25.70;;;14.55;;
44384;SDS011;30101;32.778;34.994;2022-11-15T09:34:02;26.52;;;13.88;;
44384;SDS011;30101;32.778;34.994;2022-11-15T09:39:24;21.23;;;14.45;;
44384;SDS011;30101;32.778;34.994;2022-11-15T09:50:12;18.77;;;13.27;;
44384;SDS011;30101;32.778;34.994;2022-11-15T09:55:24;27.55;;;15.65;;
44384;SDS011;30101;32.778;34.994;2022-11-15T10:00:42;23.25;;;13.80;;
44384;SDS011;30101;32.778;34.994;2022-11-15T10:05:51;19.58;;;14.18;;
44384;SDS011;30101;32.778;34.994;2022-11-15T10:11:00;17.25;;;13.60;;
44384;SDS011;30101;32.778;34.994;2022-11-15T10:27:15;19.13;;;12.65;;
44384;SDS011;30101;32.778;34.994;2022-11-15T10:32:20;14.60;;;11.07;;
44384;SDS011;30101;32.778;34.994;2022-11-15T10:37:27;15.30;;;10.13;;
44384;SDS011;30101;32.778;34.994;2022-11-15T10:42:32;13.88;;;9.88;;
44384;SDS011;30101;32.778;34.994;2022-11-15T10:47:36;12.60;;;10.05;;
44384;SDS011;30101;32.778;34.994;2022-11-15T10:52:45;14.80;;;9.27;;
44384;SDS011;30101;32.778;34.994;2022-11-15T10:57:50;10.75;;;9.10;;
44384;SDS011;30101;32.778;34.994;2022-11-15T11:03:00;13.65;;;9.43;;
44384;SDS011;30101;32.778;34.994;2022-11-15T11:08:19;17.15;;;8.88;;
44384;SDS011;30101;32.778;34.994;2022-11-15T11:18:35;19.63;;;8.65;;
44384;SDS011;30101;32.778;34.994;2022-11-15T11:29:18;14.25;;;8.70;;
44384;SDS011;30101;32.778;34.994;2022-11-15T11:45:41;12.15;;;8.88;;
44384;SDS011;30101;32.778;34.994;2022-11-15T11:51:23;21.65;;;9.80;;
44384;SDS011;30101;32.778;34.994;2022-11-15T11:56:35;10.52;;;8.10;;
44384;SDS011;30101;32.778;34.994;2022-11-15T12:01:42;17.42;;;8.63;;
44384;SDS011;30101;32.778;34.994;2022-11-15T12:17:22;13.98;;;8.88;;
44384;SDS011;30101;32.778;34.994;2022-11-15T12:27:44;12.02;;;7.95;;
44384;SDS011;30101;32.778;34.994;2022-11-15T12:32:58;10.88;;;8.35;;
44384;SDS011;30101;32.778;34.994;2022-11-15T12:38:04;13.63;;;8.98;;
44384;SDS011;30101;32.778;34.994;2022-11-15T12:43:34;17.10;;;9.73;;
44384;SDS011;30101;32.778;34.994;2022-11-15T12:53:43;14.65;;;9.93;;
44384;SDS011;30101;32.778;34.994;2022-11-15T12:58:47;15.43;;;9.55;;
44384;SDS011;30101;32.778;34.994;2022-11-15T13:19:40;15.90;;;9.32;;
44384;SDS011;30101;32.778;34.994;2022-11-15T13:24:44;15.80;;;10.32;;
44384;SDS011;30101;32.778;34.994;2022-11-15T13:29:47;13.05;;;9.05;;
44384;SDS011;30101;32.778;34.994;2022-11-15T13:34:51;13.70;;;10.27;;
44384;SDS011;30101;32.778;34.994;2022-11-15T13:39:55;14.05;;;10.25;;
44384;SDS011;30101;32.778;34.994;2022-11-15T13:45:19;18.08;;;10.70;;
44384;SDS011;30101;32.778;34.994;2022-11-15T13:50:25;11.80;;;10.00;;
44384;SDS011;30101;32.778;34.994;2022-11-15T13:55:32;11.98;;;10.57;;
44384;SDS011;30101;32.778;34.994;2022-11-15T14:00:40;16.63;;;10.02;;
44384;SDS011;30101;32.778;34.994;2022-11-15T14:11:16;14.40;;;9.98;;
44384;SDS011;30101;32.778;34.994;2022-11-15T14:16:21;14.30;;;10.95;;
44384;SDS011;30101;32.778;34.994;2022-11-15T14:27:27;17.50;;;11.80;;
44384;SDS011;30101;32.778;34.994;2022-11-15T14:32:47;13.77;;;10.57;;
44384;SDS011;30101;32.778;34.994;2022-11-15T14:37:51;16.27;;;11.13;;
44384;SDS011;30101;32.778;34.994;2022-11-15T14:42:55;18.73;;;11.77;;
44384;SDS011;30101;32.778;34.994;2022-11-15T14:47:58;15.07;;;11.52;;
44384;SDS011;30101;32.778;34.994;2022-11-15T14:53:01;15.90;;;11.57;;
44384;SDS011;30101;32.778;34.994;2022-11-15T14:58:05;13.70;;;11.38;;
44384;SDS011;30101;32.778;34.994;2022-11-15T15:03:09;15.20;;;12.10;;
44384;SDS011;30101;32.778;34.994;2022-11-15T15:08:13;18.05;;;11.38;;
44384;SDS011;30101;32.778;34.994;2022-11-15T15:13:18;17.63;;;12.05;;
44384;SDS011;30101;32.778;34.994;2022-11-15T15:18:22;14.20;;;10.77;;
44384;SDS011;30101;32.778;34.994;2022-11-15T15:23:26;16.08;;;12.07;;
44384;SDS011;30101;32.778;34.994;2022-11-15T15:28:29;13.80;;;10.68;;
44384;SDS011;30101;32.778;34.994;2022-11-15T15:33:37;18.25;;;11.13;;
44384;SDS011;30101;32.778;34.994;2022-11-15T15:38:40;16.13;;;11.55;;
44384;SDS011;30101;32.778;34.994;2022-11-15T15:43:44;18.00;;;11.75;;
44384;SDS011;30101;32.778;34.994;2022-11-15T15:48:48;17.33;;;12.02;;
44384;SDS011;30101;32.778;34.994;2022-11-15T15:53:51;15.35;;;12.25;;
44384;SDS011;30101;32.778;34.994;2022-11-15T15:58:54;17.60;;;11.90;;
44384;SDS011;30101;32.778;34.994;2022-11-15T16:03:58;16.20;;;12.00;;
44384;SDS011;30101;32.778;34.994;2022-11-15T16:09:02;16.17;;;11.48;;
44384;SDS011;30101;32.778;34.994;2022-11-15T16:14:22;14.10;;;11.80;;
44384;SDS011;30101;32.778;34.994;2022-11-15T16:19:26;16.45;;;12.23;;
44384;SDS011;30101;32.778;34.994;2022-11-15T16:24:29;14.13;;;11.77;;
44384;SDS011;30101;32.778;34.994;2022-11-15T16:29:33;15.82;;;12.40;;
44384;SDS011;30101;32.778;34.994;2022-11-15T16:34:36;17.23;;;12.30;;
44384;SDS011;30101;32.778;34.994;2022-11-15T16:39:45;14.77;;;10.95;;
44384;SDS011;30101;32.778;34.994;2022-11-15T16:44:49;19.58;;;11.45;;
44384;SDS011;30101;32.778;34.994;2022-11-15T16:49:52;16.58;;;11.05;;
44384;SDS011;30101;32.778;34.994;2022-11-15T16:54:56;18.00;;;12.27;;
44384;SDS011;30101;32.778;34.994;2022-11-15T17:00:00;15.32;;;11.73;;
44384;SDS011;30101;32.778;34.994;2022-11-15T17:05:06;16.65;;;11.48;;
44384;SDS011;30101;32.778;34.994;2022-11-15T17:10:15;16.45;;;11.23;;
44384;SDS011;30101;32.778;34.994;2022-11-15T17:15:18;13.45;;;10.73;;
44384;SDS011;30101;32.778;34.994;2022-11-15T17:20:22;16.73;;;11.90;;
44384;SDS011;30101;32.778;34.994;2022-11-15T17:25:26;15.40;;;10.85;;
44384;SDS011;30101;32.778;34.994;2022-11-15T17:30:30;15.07;;;11.50;;
44384;SDS011;30101;32.778;34.994;2022-11-15T17:35:33;12.65;;;11.13;;
44384;SDS011;30101;32.778;34.994;2022-11-15T17:40:37;13.82;;;10.48;;
44384;SDS011;30101;32.778;34.994;2022-11-15T17:45:41;14.43;;;10.60;;
44384;SDS011;30101;32.778;34.994;2022-11-15T17:50:52;14.73;;;10.45;;
44384;SDS011;30101;32.778;34.994;2022-11-15T17:56:01;15.02;;;10.93;;
44384;SDS011;30101;32.778;34.994;2022-11-15T18:06:21;16.73;;;11.05;;
44384;SDS011;30101;32.778;34.994;2022-11-15T18:11:27;17.05;;;11.50;;
44384;SDS011;30101;32.778;34.994;2022-11-15T18:16:39;13.63;;;10.73;;
44384;SDS011;30101;32.778;34.994;2022-11-15T18:21:43;17.80;;;11.60;;
44384;SDS011;30101;32.778;34.994;2022-11-15T18:26:47;12.27;;;10.25;;
44384;SDS011;30101;32.778;34.994;2022-11-15T18:31:51;16.50;;;11.30;;
44384;SDS011;30101;32.778;34.994;2022-11-15T18:36:55;16.23;;;10.77;;
44384;SDS011;30101;32.778;34.994;2022-11-15T18:41:58;13.25;;;10.68;;
44384;SDS011;30101;32.778;34.994;2022-11-15T18:47:02;16.02;;;9.98;;
44384;SDS011;30101;32.778;34.994;2022-11-15T18:52:06;11.00;;;9.80;;
44384;SDS011;30101;32.778;34.994;2022-11-15T18:57:09;14.32;;;10.00;;
44384;SDS011;30101;32.778;34.994;2022-11-15T19:02:13;13.38;;;10.07;;
44384;SDS011;30101;32.778;34.994;2022-11-15T19:07:16;12.35;;;8.95;;
44384;SDS011;30101;32.778;34.994;2022-11-15T19:12:21;12.38;;;9.25;;
44384;SDS011;30101;32.778;34.994;2022-11-15T19:17:28;14.30;;;10.02;;
44384;SDS011;30101;32.778;34.994;2022-11-15T19:22:34;14.13;;;9.98;;
44384;SDS011;30101;32.778;34.994;2022-11-15T19:27:37;11.55;;;9.38;;
44384;SDS011;30101;32.778;34.994;2022-11-15T19:32:41;16.13;;;9.13;;
44384;SDS011;30101;32.778;34.994;2022-11-15T19:37:44;14.57;;;10.73;;
44384;SDS011;30101;32.778;34.994;2022-11-15T19:42:48;11.80;;;9.70;;
44384;SDS011;30101;32.778;34.994;2022-11-15T19:52:55;12.77;;;10.60;;
44384;SDS011;30101;32.778;34.994;2022-11-15T19:57:58;14.55;;;10.10;;
44384;SDS011;30101;32.778;34.994;2022-11-15T20:03:03;13.48;;;9.82;;
44384;SDS011;30101;32.778;34.994;2022-11-15T20:08:06;14.65;;;8.77;;
44384;SDS011;30101;32.778;34.994;2022-11-15T20:13:10;11.45;;;9.25;;
44384;SDS011;30101;32.778;34.994;2022-11-15T20:18:14;12.02;;;9.15;;
44384;SDS011;30101;32.778;34.994;2022-11-15T20:23:18;15.18;;;9.10;;
44384;SDS011;30101;32.778;34.994;2022-11-15T20:33:26;13.00;;;8.18;;
44384;SDS011;30101;32.778;34.994;2022-11-15T20:38:31;12.45;;;9.40;;
44384;SDS011;30101;32.778;34.994;2022-11-15T20:43:34;12.48;;;8.93;;
44384;SDS011;30101;32.778;34.994;2022-11-15T20:53:41;16.35;;;9.07;;
44384;SDS011;30101;32.778;34.994;2022-11-15T20:58:46;13.40;;;9.05;;
44384;SDS011;30101;32.778;34.994;2022-11-15T21:03:50;12.32;;;8.82;;
44384;SDS011;30101;32.778;34.994;2022-11-15T21:09:04;12.05;;;9.10;;
44384;SDS011;30101;32.778;34.994;2022-11-15T21:14:07;14.55;;;8.93;;
44384;SDS011;30101;32.778;34.994;2022-11-15T21:19:12;11.70;;;8.68;;
44384;SDS011;30101;32.778;34.994;2022-11-15T21:24:23;11.50;;;9.02;;
44384;SDS011;30101;32.778;34.994;2022-11-15T21:29:29;12.70;;;8.95;;
44384;SDS011;30101;32.778;34.994;2022-11-15T21:34:33;14.50;;;8.75;;
44384;SDS011;30101;32.778;34.994;2022-11-15T21:39:37;13.27;;;8.43;;
44384;SDS011;30101;32.778;34.994;2022-11-15T21:44:41;11.02;;;8.77;;
44384;SDS011;30101;32.778;34.994;2022-11-15T21:49:44;12.35;;;8.57;;
44384;SDS011;30101;32.778;34.994;2022-11-15T21:54:47;13.15;;;9.13;;
44384;SDS011;30101;32.778;34.994;2022-11-15T21:59:51;12.55;;;9.55;;
44384;SDS011;30101;32.778;34.994;2022-11-15T22:04:54;16.05;;;8.40;;
44384;SDS011;30101;32.778;34.994;2022-11-15T22:09:58;12.32;;;8.43;;
44384;SDS011;30101;32.778;34.994;2022-11-15T22:15:01;9.75;;;8.20;;
44384;SDS011;30101;32.778;34.994;2022-11-15T22:20:05;13.02;;;8.45;;
44384;SDS011;30101;32.778;34.994;2022-11-15T22:25:29;13.98;;;9.23;;
44384;SDS011;30101;32.778;34.994;2022-11-15T22:30:32;10.82;;;8.82;;
44384;SDS011;30101;32.778;34.994;2022-11-15T22:35:36;16.25;;;8.30;;
44384;SDS011;30101;32.778;34.994;2022-11-15T22:40:41;11.18;;;8.63;;
44384;SDS011;30101;32.778;34.994;2022-11-15T22:45:46;11.75;;;7.75;;
44384;SDS011;30101;32.778;34.994;2022-11-15T22:50:54;8.90;;;7.20;;
44384;SDS011;30101;32.778;34.994;2022-11-15T22:56:02;11.18;;;7.90;;
44384;SDS011;30101;32.778;34.994;2022-11-15T23:01:13;11.38;;;7.80;;
44384;SDS011;30101;32.778;34.994;2022-11-15T23:06:22;10.57;;;7.80;;
44384;SDS011;30101;32.778;34.994;2022-11-15T23:11:26;8.95;;;7.85;;
44384;SDS011;30101;32.778;34.994;2022-11-15T23:21:36;20.02;;;8.15;;
44384;SDS011;30101;32.778;34.994;2022-11-15T23:26:45;10.37;;;7.33;;
44384;SDS011;30101;32.778;34.994;2022-11-15T23:31:50;8.60;;;6.60;;
44384;SDS011;30101;32.778;34.994;2022-11-15T23:37:04;9.52;;;6.80;;
44384;SDS011;30101;32.778;34.994;2022-11-15T23:42:07;10.23;;;7.43;;
44384;SDS011;30101;32.778;34.994;2022-11-15T23:47:11;18.85;;;7.85;;
44384;SDS011;30101;32.778;34.994;2022-11-15T23:52:15;13.82;;;6.88;;
44384;SDS011;30101;32.778;34.994;2022-11-15T23:57:19;10.77;;;6.90;;
